Thunder radar more information blitzortung!


Radar de pluja more information rain snow radar


Visita la nostra xarxa de llocs de meteo:

Template documentation
and downloads

And another site



No particular awareness of the weather is required.    There are no Weather-warnings

Pagina Historial Weather Underground text

Diari Resum Agost 27, 2017 Unitats:  Mètric    Imperial   Tant
« Previous Dia
SegĂźent Dia »
Diari Setmana Mensual Anual Personalitzada
  Maxima: Minima: Media:
Temperatura: 31.8 °C 21.0 °C 26.9 °C
Punt de rosada: 21.1 °C 16.8 °C 19.5 °C
Humitat: 86 % 49 % 65 %
Wind Speed: 22.2 km/h 0.0 km/h 7.5 km/h
RĂ fegues de vent: 22.2 km/h - -
Vent:- - SSE
Pression baro: 1015.8 hPa 1012.8 hPa -
Precipitacions: 0.0 mm    
Historical Graphs
 
 
Dades de taula per Agost 27, 2017
Temps Temperatura Punt de rosada Pression baro Vent Wind Speed RĂ fegues de vent Humitat Rainfall Rate (Hourly)
00:03 24.2 °C 19.5 °C 1014.8 hPa East 3.7 km/h 3.7 km/h 75 % 0.0 mm
00:05 22.4 °C 19.0 °C 1013.8 hPa Calm   3.2 km/h 81 % 0.0 mm
00:08 24.2 °C 19.5 °C 1014.8 hPa East 4.2 km/h 4.2 km/h 75 % 0.0 mm
00:15 22.4 °C 19.0 °C 1013.8 hPa Calm     81 % 0.0 mm
00:25 22.4 °C 19.0 °C 1013.8 hPa Calm   1.6 km/h 81 % 0.0 mm
00:35 22.4 °C 19.2 °C 1014.8 hPa Calm     82 % 0.0 mm
00:45 22.4 °C 19.2 °C 1014.8 hPa WNW 1.6 km/h 1.6 km/h 82 % 0.0 mm
00:55 22.4 °C 19.2 °C 1014.8 hPa NNW 1.6 km/h 3.2 km/h 82 % 0.0 mm
01:05 22.3 °C 18.9 °C 1013.8 hPa NNE 1.6 km/h 4.8 km/h 81 % 0.0 mm
01:15 22.0 °C 18.6 °C 1013.8 hPa Calm   3.2 km/h 81 % 0.0 mm
01:25 21.8 °C 18.6 °C 1013.8 hPa Calm     82 % 0.0 mm
01:35 21.8 °C 18.6 °C 1014.8 hPa Calm     82 % 0.0 mm
01:45 21.7 °C 18.5 °C 1014.8 hPa SW 1.6 km/h 3.2 km/h 82 % 0.0 mm
01:55 21.7 °C 18.7 °C 1014.8 hPa Calm   1.6 km/h 83 % 0.0 mm
02:05 21.6 °C 18.8 °C 1013.8 hPa Calm     84 % 0.0 mm
02:15 21.6 °C 18.6 °C 1013.8 hPa West 1.6 km/h 1.6 km/h 83 % 0.0 mm
02:25 21.6 °C 18.8 °C 1013.8 hPa Calm   3.2 km/h 84 % 0.0 mm
02:35 21.6 °C 18.8 °C 1014.8 hPa NW 1.6 km/h   84 % 0.0 mm
02:45 21.2 °C 18.2 °C 1014.8 hPa NNW 1.6 km/h 3.2 km/h 83 % 0.0 mm
02:55 21.2 °C 18.4 °C 1014.8 hPa East 1.6 km/h 3.2 km/h 84 % 0.0 mm
03:05 21.1 °C 18.3 °C 1014.8 hPa Calm     84 % 0.0 mm
03:15 21.1 °C 18.5 °C 1014.8 hPa ENE 1.6 km/h 3.2 km/h 85 % 0.0 mm
03:25 21.1 °C 18.5 °C 1014.8 hPa ENE 1.6 km/h 3.2 km/h 85 % 0.0 mm
03:35 21.0 °C 18.4 °C 1013.8 hPa Calm   4.8 km/h 85 % 0.0 mm
03:45 21.1 °C 18.5 °C 1013.8 hPa Calm   3.2 km/h 85 % 0.0 mm
03:55 21.1 °C 18.5 °C 1013.8 hPa Calm   3.2 km/h 85 % 0.0 mm
04:05 21.4 °C 18.8 °C 1013.8 hPa Calm   3.2 km/h 85 % 0.0 mm
04:15 21.9 °C 19.4 °C 1014.8 hPa Calm   1.6 km/h 86 % 0.0 mm
04:25 22.0 °C 19.3 °C 1014.8 hPa NE 1.6 km/h 4.8 km/h 85 % 0.0 mm
04:35 22.0 °C 19.2 °C 1014.8 hPa ENE 1.6 km/h 3.2 km/h 84 % 0.0 mm
04:45 22.2 °C 19.4 °C 1014.8 hPa NE 1.6 km/h 3.2 km/h 84 % 0.0 mm
04:55 22.2 °C 19.2 °C 1014.8 hPa NE 4.8 km/h 4.8 km/h 83 % 0.0 mm
05:05 22.5 °C 19.4 °C 1014.8 hPa NE 3.2 km/h 4.8 km/h 83 % 0.0 mm
10:09 24.5 °C 20.0 °C 1014.8 hPa East 9.3 km/h 9.3 km/h 76 % 0.0 mm
10:12 24.6 °C 20.1 °C 1015.8 hPa East 3.9 km/h 4.7 km/h 76 % 0.0 mm
10:17 24.7 °C 20.2 °C 1015.8 hPa East 7.4 km/h 7.4 km/h 76 % 0.0 mm
10:22 24.9 °C 20.4 °C 1015.8 hPa NNE 7.4 km/h 7.4 km/h 76 % 0.0 mm
10:27 25.0 °C 20.3 °C 1015.8 hPa NE 7.4 km/h 7.4 km/h 75 % 0.0 mm
10:32 25.3 °C 20.6 °C 1015.8 hPa NNE 5.6 km/h 5.6 km/h 75 % 0.0 mm
10:37 25.7 °C 20.7 °C 1015.8 hPa ESE 9.3 km/h 9.3 km/h 74 % 0.0 mm
10:42 25.7 °C 20.5 °C 1015.8 hPa East 9.3 km/h 9.3 km/h 73 % 0.0 mm
10:47 25.7 °C 20.5 °C 1015.8 hPa ENE 13.0 km/h 13.0 km/h 73 % 0.0 mm
10:52 25.9 °C 20.4 °C 1015.8 hPa ESE 11.1 km/h 11.1 km/h 72 % 0.0 mm
10:57 26.5 °C 21.1 °C 1015.8 hPa ESE 7.9 km/h 7.9 km/h 72 % 0.0 mm
11:02 27.0 °C 21.1 °C 1015.8 hPa East 9.3 km/h 9.3 km/h 70 % 0.0 mm
11:07 27.1 °C 20.9 °C 1015.8 hPa ESE 7.4 km/h 7.4 km/h 69 % 0.0 mm
11:12 27.4 °C 20.7 °C 1015.8 hPa SE 7.9 km/h 7.9 km/h 67 % 0.0 mm
11:17 27.1 °C 20.4 °C 1015.8 hPa South 13.0 km/h 13.0 km/h 67 % 0.0 mm
11:22 27.8 °C 21.1 °C 1015.8 hPa ENE 7.4 km/h 7.4 km/h 67 % 0.0 mm
11:27 27.4 °C 20.7 °C 1015.8 hPa ESE 5.6 km/h 5.6 km/h 67 % 0.0 mm
11:32 27.7 °C 20.8 °C 1015.8 hPa ESE 13.0 km/h 13.0 km/h 66 % 0.0 mm
11:37 27.5 °C 20.6 °C 1015.8 hPa East 10.0 km/h 10.0 km/h 66 % 0.0 mm
11:42 27.7 °C 20.5 °C 1015.8 hPa NE 9.3 km/h 9.3 km/h 65 % 0.0 mm
11:47 27.6 °C 20.4 °C 1015.8 hPa ENE 5.6 km/h 5.6 km/h 65 % 0.0 mm
11:52 28.0 °C 20.6 °C 1015.8 hPa East 9.3 km/h 9.3 km/h 64 % 0.0 mm
11:57 27.9 °C 20.7 °C 1015.8 hPa ESE 9.3 km/h 9.3 km/h 65 % 0.0 mm
12:02 28.3 °C 20.8 °C 1015.8 hPa ENE 7.4 km/h 7.4 km/h 64 % 0.0 mm
12:07 28.5 °C 21.0 °C 1015.8 hPa NE 10.0 km/h 10.0 km/h 64 % 0.0 mm
12:12 28.6 °C 20.9 °C 1015.8 hPa ESE 9.3 km/h 9.3 km/h 63 % 0.0 mm
12:22 29.0 °C 21.0 °C 1015.8 hPa NE 9.3 km/h 9.5 km/h 62 % 0.0 mm
12:27 28.7 °C 20.9 °C 1014.8 hPa ENE 9.3 km/h 9.3 km/h 63 % 0.0 mm
12:32 28.6 °C 20.6 °C 1014.8 hPa SE 7.4 km/h 7.4 km/h 62 % 0.0 mm
12:37 29.5 °C 20.9 °C 1014.8 hPa East 11.1 km/h 11.1 km/h 60 % 0.0 mm
12:42 28.9 °C 20.6 °C 1014.8 hPa East 11.4 km/h 11.4 km/h 61 % 0.0 mm
12:47 28.9 °C 20.6 °C 1014.8 hPa East 13.0 km/h 13.0 km/h 61 % 0.0 mm
12:52 29.2 °C 20.4 °C 1014.8 hPa East 9.3 km/h 9.3 km/h 59 % 0.0 mm
12:57 29.2 °C 20.6 °C 1014.8 hPa ESE 7.4 km/h 7.4 km/h 60 % 0.0 mm
13:02 29.0 °C 20.4 °C 1014.8 hPa NE 9.3 km/h 9.3 km/h 60 % 0.0 mm
13:07 29.0 °C 20.4 °C 1014.8 hPa East 3.9 km/h 4.2 km/h 60 % 0.0 mm
13:12 28.8 °C 20.6 °C 1014.8 hPa ENE 9.3 km/h 9.3 km/h 61 % 0.0 mm
13:17 28.7 °C 20.4 °C 1014.8 hPa East 9.0 km/h 9.0 km/h 61 % 0.0 mm
13:22 29.0 °C 20.4 °C 1014.8 hPa ENE 5.6 km/h 5.6 km/h 60 % 0.0 mm
13:27 29.7 °C 20.8 °C 1014.8 hPa ESE 9.3 km/h 9.3 km/h 59 % 0.0 mm
13:32 29.5 °C 20.4 °C 1014.8 hPa ESE 16.7 km/h 16.7 km/h 58 % 0.0 mm
13:37 29.5 °C 20.7 °C 1014.8 hPa ENE 7.4 km/h 7.4 km/h 59 % 0.0 mm
13:42 30.0 °C 20.8 °C 1014.8 hPa ESE 5.3 km/h 5.3 km/h 58 % 0.0 mm
13:47 30.1 °C 20.9 °C 1014.8 hPa ESE 7.4 km/h 7.4 km/h 58 % 0.0 mm
13:52 30.6 °C 21.1 °C 1014.8 hPa NNE 9.3 km/h 9.3 km/h 57 % 0.0 mm
13:57 30.6 °C 21.1 °C 1014.8 hPa ENE 5.6 km/h 5.6 km/h 57 % 0.0 mm
14:02 30.9 °C 21.1 °C 1014.8 hPa ESE 5.6 km/h 5.6 km/h 56 % 0.0 mm
14:07 31.5 °C 21.1 °C 1014.8 hPa East 7.4 km/h 7.4 km/h 54 % 0.0 mm
14:12 31.0 °C 20.3 °C 1013.8 hPa ESE 5.6 km/h 5.6 km/h 53 % 0.0 mm
14:17 30.9 °C 20.5 °C 1013.8 hPa ESE 9.3 km/h 9.3 km/h 54 % 0.0 mm
14:22 31.2 °C 20.8 °C 1013.8 hPa ENE 7.4 km/h 7.4 km/h 54 % 0.0 mm
14:27 30.6 °C 19.9 °C 1013.8 hPa ESE 13.0 km/h 13.0 km/h 53 % 0.0 mm
14:32 31.3 °C 20.6 °C 1013.8 hPa ENE 5.6 km/h 5.6 km/h 53 % 0.0 mm
14:37 31.3 °C 20.6 °C 1013.8 hPa ESE 6.1 km/h 6.1 km/h 53 % 0.0 mm
14:42 31.2 °C 19.9 °C 1013.8 hPa ENE 11.1 km/h 11.1 km/h 51 % 0.0 mm
14:47 31.2 °C 19.9 °C 1013.8 hPa ESE 14.8 km/h 14.8 km/h 51 % 0.0 mm
14:52 31.3 °C 20.3 °C 1013.8 hPa ESE 13.0 km/h 13.0 km/h 52 % 0.0 mm
14:57 31.3 °C 19.9 °C 1013.8 hPa ENE 13.0 km/h 13.0 km/h 51 % 0.0 mm
15:02 31.4 °C 19.7 °C 1013.8 hPa SE 13.0 km/h 13.0 km/h 50 % 0.0 mm
15:07 31.4 °C 19.7 °C 1013.8 hPa ENE 13.0 km/h 13.0 km/h 50 % 0.0 mm
15:12 31.6 °C 19.9 °C 1013.8 hPa NE 13.0 km/h 13.0 km/h 50 % 0.0 mm
15:17 31.5 °C 19.5 °C 1013.8 hPa ESE 14.8 km/h 14.8 km/h 49 % 0.0 mm
15:22 31.6 °C 19.9 °C 1013.8 hPa ESE 13.0 km/h 13.0 km/h 50 % 0.0 mm
15:27 31.6 °C 19.9 °C 1013.8 hPa South 14.0 km/h 14.0 km/h 50 % 0.0 mm
15:32 31.4 °C 19.4 °C 1013.8 hPa East 13.0 km/h 13.0 km/h 49 % 0.0 mm
15:37 31.8 °C 19.8 °C 1013.8 hPa ESE 11.1 km/h 11.1 km/h 49 % 0.0 mm
15:42 31.5 °C 19.5 °C 1013.8 hPa SE 13.0 km/h 13.0 km/h 49 % 0.0 mm
15:47 31.5 °C 19.5 °C 1013.8 hPa ESE 13.0 km/h 13.0 km/h 49 % 0.0 mm
15:52 31.7 °C 19.7 °C 1013.8 hPa SE 10.0 km/h 10.0 km/h 49 % 0.0 mm
15:57 31.5 °C 19.5 °C 1013.8 hPa NE 13.0 km/h 13.0 km/h 49 % 0.0 mm
16:02 31.5 °C 19.8 °C 1013.8 hPa ESE 12.6 km/h 12.6 km/h 50 % 0.0 mm
16:07 30.9 °C 19.6 °C 1013.8 hPa East 13.0 km/h 13.0 km/h 51 % 0.0 mm
16:12 30.8 °C 19.8 °C 1012.8 hPa ENE 11.1 km/h 11.1 km/h 52 % 0.0 mm
16:17 30.5 °C 19.6 °C 1012.8 hPa ENE 16.9 km/h 16.9 km/h 52 % 0.0 mm
16:22 30.1 °C 19.4 °C 1012.8 hPa ESE 14.8 km/h 14.8 km/h 53 % 0.0 mm
16:27 29.8 °C 19.5 °C 1012.8 hPa SE 11.4 km/h 11.4 km/h 54 % 0.0 mm
16:32 30.1 °C 19.8 °C 1012.8 hPa ESE 13.0 km/h 13.0 km/h 54 % 0.0 mm
16:37 29.9 °C 19.6 °C 1012.8 hPa ESE 13.0 km/h 13.0 km/h 54 % 0.0 mm
16:42 30.0 °C 20.0 °C 1013.8 hPa East 14.8 km/h 14.8 km/h 55 % 0.0 mm
16:47 30.0 °C 20.0 °C 1013.8 hPa SSE 16.7 km/h 16.7 km/h 55 % 0.0 mm
16:52 30.0 °C 20.3 °C 1013.8 hPa East 16.7 km/h 16.7 km/h 56 % 0.0 mm
16:57 30.4 °C 20.3 °C 1013.8 hPa ESE 11.1 km/h 11.1 km/h 55 % 0.0 mm
17:02 30.8 °C 20.7 °C 1013.8 hPa SW 5.6 km/h 5.6 km/h 55 % 0.0 mm
17:07 31.0 °C 20.9 °C 1013.8 hPa WSW 9.3 km/h 9.3 km/h 55 % 0.0 mm
17:12 30.7 °C 20.9 °C 1013.8 hPa SW 10.0 km/h 10.0 km/h 56 % 0.0 mm
17:17 30.3 °C 20.6 °C 1013.8 hPa SW 10.3 km/h 10.3 km/h 56 % 0.0 mm
17:22 30.0 °C 20.6 °C 1013.8 hPa South 9.5 km/h 9.5 km/h 57 % 0.0 mm
17:27 30.0 °C 20.6 °C 1013.8 hPa SW 11.1 km/h 11.1 km/h 57 % 0.0 mm
17:32 30.3 °C 20.8 °C 1013.8 hPa SSW 11.1 km/h 11.1 km/h 57 % 0.0 mm
17:37 29.8 °C 20.4 °C 1013.8 hPa SW 22.2 km/h 22.2 km/h 57 % 0.0 mm
17:38 29.8 °C 20.4 °C 1013.8 hPa SW 14.8 km/h 14.8 km/h 57 % 0.0 mm
17:43 29.5 °C 20.4 °C 1013.8 hPa SW 12.6 km/h 12.6 km/h 58 % 0.0 mm
17:48 29.4 °C 20.3 °C 1013.8 hPa SW 14.8 km/h 14.8 km/h 58 % 0.0 mm
17:53 29.6 °C 20.4 °C 1013.8 hPa SW 17.2 km/h 17.2 km/h 58 % 0.0 mm
17:58 29.4 °C 20.3 °C 1013.8 hPa SW 13.0 km/h 13.0 km/h 58 % 0.0 mm
18:03 29.0 °C 19.9 °C 1013.8 hPa SW 14.8 km/h 14.8 km/h 58 % 0.0 mm
18:08 28.9 °C 20.3 °C 1013.8 hPa SSW 13.0 km/h 13.0 km/h 60 % 0.0 mm
18:13 29.1 °C 20.3 °C 1013.8 hPa SW 14.8 km/h 14.8 km/h 59 % 0.0 mm
18:18 28.8 °C 20.3 °C 1013.8 hPa West 20.4 km/h 20.4 km/h 60 % 0.0 mm
18:23 28.6 °C 20.3 °C 1013.8 hPa SW 9.3 km/h 9.3 km/h 61 % 0.0 mm
18:28 28.5 °C 20.2 °C 1012.8 hPa SW 9.3 km/h 9.3 km/h 61 % 0.0 mm
18:33 28.0 °C 19.8 °C 1012.8 hPa WSW 16.7 km/h 16.7 km/h 61 % 0.0 mm
18:38 27.6 °C 19.7 °C 1012.8 hPa SW 18.5 km/h 18.5 km/h 62 % 0.0 mm
18:43 27.4 °C 19.7 °C 1013.8 hPa West 16.7 km/h 16.7 km/h 63 % 0.0 mm
18:48 27.0 °C 19.3 °C 1013.8 hPa SW 13.0 km/h 13.0 km/h 63 % 0.0 mm
18:53 26.8 °C 19.4 °C 1013.8 hPa SW 13.0 km/h 13.0 km/h 64 % 0.0 mm
18:58 26.7 °C 19.6 °C 1013.8 hPa West 9.3 km/h 9.3 km/h 65 % 0.0 mm
19:03 26.7 °C 19.6 °C 1013.8 hPa WSW 9.3 km/h 9.3 km/h 65 % 0.0 mm
19:08 26.5 °C 19.6 °C 1013.8 hPa SW 16.7 km/h 16.7 km/h 66 % 0.0 mm
19:13 26.4 °C 19.6 °C 1013.8 hPa SSW 16.7 km/h 16.7 km/h 66 % 0.0 mm
19:18 26.3 °C 19.4 °C 1013.8 hPa SSW 9.3 km/h 9.3 km/h 66 % 0.0 mm
19:23 26.3 °C 19.4 °C 1013.8 hPa SSW 11.1 km/h 11.1 km/h 66 % 0.0 mm
19:28 26.2 °C 19.3 °C 1012.8 hPa SW 15.8 km/h 15.8 km/h 66 % 0.0 mm
19:33 26.1 °C 19.5 °C 1012.8 hPa SW 5.6 km/h 5.6 km/h 67 % 0.0 mm
19:38 26.1 °C 19.5 °C 1012.8 hPa WSW 5.6 km/h 5.6 km/h 67 % 0.0 mm
19:43 26.1 °C 19.5 °C 1013.8 hPa SW 5.6 km/h 5.6 km/h 67 % 0.0 mm
19:48 26.1 °C 19.5 °C 1013.8 hPa WSW 5.6 km/h 5.6 km/h 67 % 0.0 mm
19:50 26.0 °C 19.4 °C 1013.8 hPa South 7.4 km/h 7.4 km/h 67 % 0.0 mm
19:55 26.1 °C 19.5 °C 1013.8 hPa SSW 5.6 km/h 5.6 km/h 67 % 0.0 mm
20:00 26.1 °C 19.5 °C 1013.8 hPa WSW 3.7 km/h 3.7 km/h 67 % 0.0 mm
20:05 26.1 °C 19.5 °C 1013.8 hPa ESE 1.9 km/h   67 % 0.0 mm
20:10 26.1 °C 19.5 °C 1013.8 hPa West 3.7 km/h 3.7 km/h 67 % 0.0 mm
20:15 26.1 °C 19.5 °C 1013.8 hPa West 1.9 km/h   67 % 0.0 mm
20:16 26.1 °C 19.5 °C 1013.8 hPa West 1.9 km/h   67 % 0.0 mm
20:21 26.1 °C 19.5 °C 1013.8 hPa NNE 2.6 km/h 2.6 km/h 67 % 0.0 mm
20:26 26.1 °C 19.5 °C 1014.8 hPa SW 3.7 km/h 3.7 km/h 67 % 0.0 mm
20:31 25.9 °C 19.3 °C 1014.8 hPa West 5.6 km/h 5.6 km/h 67 % 0.0 mm
20:36 25.8 °C 19.2 °C 1014.8 hPa WNW 7.4 km/h 7.4 km/h 67 % 0.0 mm
20:41 25.9 °C 19.3 °C 1012.8 hPa South 5.6 km/h 5.6 km/h 67 % 0.0 mm
20:46 26.2 °C 19.3 °C 1012.8 hPa West 5.6 km/h 5.6 km/h 66 % 0.0 mm
20:51 26.4 °C 19.3 °C 1012.8 hPa SSW 3.7 km/h   65 % 0.0 mm
20:56 26.4 °C 19.3 °C 1013.8 hPa Calm     65 % 0.0 mm
21:01 26.6 °C 19.2 °C 1013.8 hPa SE 2.6 km/h 2.6 km/h 64 % 0.0 mm
21:06 26.5 °C 19.1 °C 1013.8 hPa SW 3.2 km/h   64 % 0.0 mm
21:11 26.3 °C 19.2 °C 1013.8 hPa WSW 3.7 km/h 3.7 km/h 65 % 0.0 mm
21:16 26.1 °C 19.0 °C 1013.8 hPa WSW 1.4 km/h   65 % 0.0 mm
21:21 25.9 °C 18.8 °C 1013.8 hPa SSW 5.6 km/h 5.6 km/h 65 % 0.0 mm
21:26 25.6 °C 18.8 °C 1013.8 hPa WSW 3.7 km/h 3.7 km/h 66 % 0.0 mm
21:31 25.5 °C 18.9 °C 1013.8 hPa WSW 3.7 km/h 3.7 km/h 67 % 0.0 mm
21:36 25.3 °C 18.7 °C 1013.8 hPa SSE 3.7 km/h 3.7 km/h 67 % 0.0 mm
21:41 25.2 °C 18.9 °C 1013.8 hPa West 3.7 km/h 3.7 km/h 68 % 0.0 mm
21:46 25.1 °C 18.6 °C 1013.8 hPa WSW 2.6 km/h 2.6 km/h 67 % 0.0 mm
21:51 25.1 °C 18.8 °C 1013.8 hPa SSW 3.2 km/h   68 % 0.0 mm
21:56 25.2 °C 18.6 °C 1013.8 hPa West 2.3 km/h   67 % 0.0 mm
22:01 25.3 °C 18.5 °C 1013.8 hPa WSW 3.9 km/h 3.9 km/h 66 % 0.0 mm
22:06 25.3 °C 18.2 °C 1013.8 hPa West 3.7 km/h 3.7 km/h 65 % 0.0 mm
22:11 25.4 °C 18.3 °C 1013.8 hPa SW 3.7 km/h 3.7 km/h 65 % 0.0 mm
22:16 25.3 °C 18.5 °C 1013.8 hPa SW 1.9 km/h   66 % 0.0 mm
22:21 25.1 °C 18.1 °C 1013.8 hPa SW 3.7 km/h 3.7 km/h 65 % 0.0 mm
22:26 25.1 °C 17.8 °C 1013.8 hPa SW 3.7 km/h 3.7 km/h 64 % 0.0 mm
22:31 25.0 °C 17.7 °C 1013.8 hPa SW 1.9 km/h 1.9 km/h 64 % 0.0 mm
22:36 25.0 °C 17.7 °C 1013.8 hPa SW 3.7 km/h 3.7 km/h 64 % 0.0 mm
22:41 24.9 °C 17.6 °C 1013.8 hPa WSW 3.7 km/h 3.9 km/h 64 % 0.0 mm
22:46 24.9 °C 17.4 °C 1013.8 hPa WSW 2.3 km/h 3.2 km/h 63 % 0.0 mm
22:51 24.8 °C 17.3 °C 1013.8 hPa SW 5.6 km/h 5.6 km/h 63 % 0.0 mm
22:56 24.8 °C 17.3 °C 1013.8 hPa West 3.7 km/h 3.7 km/h 63 % 0.0 mm
23:01 24.7 °C 16.9 °C 1013.8 hPa SW 1.9 km/h 1.9 km/h 62 % 0.0 mm
23:06 24.7 °C 16.9 °C 1013.8 hPa WSW 3.2 km/h 3.2 km/h 62 % 0.0 mm
23:11 24.7 °C 16.9 °C 1013.8 hPa WSW 3.9 km/h 3.9 km/h 62 % 0.0 mm
23:16 24.8 °C 17.0 °C 1013.8 hPa WSW 3.9 km/h 3.9 km/h 62 % 0.0 mm
23:21 24.9 °C 16.8 °C 1013.8 hPa WSW 7.4 km/h 7.4 km/h 61 % 0.0 mm
23:26 24.9 °C 16.8 °C 1013.8 hPa West 5.6 km/h 5.6 km/h 61 % 0.0 mm
23:31 24.8 °C 16.8 °C 1013.8 hPa SW 3.9 km/h 3.9 km/h 61 % 0.0 mm
23:36 24.7 °C 16.9 °C 1013.8 hPa WSW 7.4 km/h 7.4 km/h 62 % 0.0 mm
23:41 24.6 °C 17.1 °C 1013.8 hPa WSW 7.4 km/h 7.4 km/h 63 % 0.0 mm
23:46 24.5 °C 17.2 °C 1013.8 hPa SSW 7.4 km/h 7.4 km/h 64 % 0.0 mm
23:51 24.4 °C 17.4 °C 1013.8 hPa SW 5.0 km/h 5.0 km/h 65 % 0.0 mm
23:56 24.2 °C 17.2 °C 1013.8 hPa South 5.6 km/h 5.6 km/h 65 % 0.0 mm
Meteo Sesrovires
Elogis d' Weather Underground - 3.5 mb

Guio original per  Jim McMurry - jmcmurry@mwt.net Adaptat per a la plantilla per  Wim van der Kuil - Leuven-Template.eu

Trobareu la nostra informacio del temps tambe a:

Weather Underground

AWEKAS